x

North Nomad (46184) Wave Buoy

3:00am - Sun 23rd Nov 2014 All times are AKST. -9 hours from GMT.

  • Sig Wave height 11.2ft
  • Peak Period 14s
  • Wind
    18mph, 22mph gusts
  • Sea Temp 49°f
  • Air Temp 48°f
  • Sea Pressure 1003.3mb
  • North Nomad
  • North Nomad

More Historic Weather Station data

Upgrade to MSW Pro to gain access to the past 30 days of data for over 8000 Wavebouys and Weather Stations around the globe.

Join Pro

Comparision Forecast

View Surf forecast
   
Sun 11/23 3:00am 11ft 14s 18 22 mph 1003.3mb 49f 48f
2:00am 11ft 11s 20 25 mph 1002.4mb 49f 49f
1:00am 11.5ft 12s 20 27 mph 1001.7mb 49f 48f
12:00am 13ft 14s 20 25 mph 1001.2mb 49f 48f
Sat 11/22 11:00pm 13ft 12s 20 27 mph 1000.2mb 49f 47f
10:00pm 13ft 12s 20 25 mph 999.3mb 49f 48f
9:00pm 14ft 13s 16 20 mph 998.5mb 49f 47f
8:00pm 13.5ft 12s 16 20 mph 997.6mb 49f 47f
7:00pm 14ft 13s 16 20 mph 996.9mb 49f 47f
6:00pm 13ft 13s 13 20 mph 996.5mb 49f 47f
5:00pm 12ft 11s 16 20 mph 995.8mb 49f 46f
4:00pm 12ft 13s 16 18 mph 995.1mb 49f 47f
3:00pm 12ft 13s 18 22 mph 994.7mb 49f 46f
2:00pm 12ft 14s 11 16 mph 994.5mb 49f 47f
1:00pm 12ft 13s 20 27 mph 994.6mb 49f 44f
12:00pm 12ft 11s 16 18 mph 994.4mb 49f 47f
11:00am 12ft 13s 16 20 mph 994.5mb 49f 47f
10:00am 12ft 13s 16 18 mph 994.4mb 49f 47f
9:00am 12.5ft 12s 18 25 mph 993.9mb 49f 47f
8:00am 14ft 14s 18 25 mph 993.5mb 49f 46f
7:00am 14ft 14s 20 22 mph 993mb 49f 47f
6:00am  -   -  20
mph
992.4mb - 47f
5:00am 14.5ft 13s 16 29 mph 992mb 49f 48f
4:00am 15.5ft 13s 20 25 mph 991.5mb 49f 48f
3:00am 15ft 13s 22 27 mph 990.9mb 49f 49f
2:00am 14.5ft 13s 13 20 mph 990.8mb 49f 48f
1:00am 13.5ft 14s 22 29 mph 990.1mb 49f 48f
12:00am 15.5ft 13s 20 25 mph 989.7mb 49f 48f
Fri 11/21 11:00pm 15ft 14s 22 27 mph 988.7mb 49f 48f
10:00pm 15ft 14s 20 27 mph 988.3mb 49f 48f
9:00pm 15ft 14s 20 25 mph 988.3mb 49f 49f
8:00pm 14ft 15s 13 18 mph 988.1mb 49f 49f
7:00pm 14ft 15s 13 18 mph 988.3mb 49f 48f
6:00pm 15ft 15s 18 22 mph 988.4mb 49f 48f
5:00pm 15.5ft 14s 18 22 mph 988.1mb 49f 48f
4:00pm 16.5ft 15s 18 25 mph 988mb 49f 48f
3:00pm 16.5ft 14s 20 27 mph 987.7mb 49f 48f
2:00pm 16.5ft 11s 18 22 mph 987.6mb 49f 48f
1:00pm 17.5ft 12s 20 25 mph 987.4mb 49f 49f
12:00pm 18.5ft 15s 20 25 mph 987.4mb 49f 49f
11:00am 19ft 15s 18 22 mph 987.5mb 49f 48f
10:00am 20ft 14s 25 31 mph 987.1mb 49f 48f
9:00am 17.5ft 14s 18 22 mph 987.1mb 49f 47f
8:00am 17.5ft 15s 18 25 mph 986.7mb 49f 48f
7:00am 18ft 11s 20 27 mph 986.2mb 49f 48f
6:00am 17.5ft 17s 22 31 mph 985.9mb 49f 48f
5:00am 15.5ft 17s 22 27 mph 985.8mb 49f 48f
4:00am 14.5ft 18s 20 27 mph 985.7mb 49f 49f
3:00am 14.5ft 11s 22 27 mph 985.5mb 49f 48f
2:00am 14ft 11s 25 31 mph 985.1mb 49f 48f
1:00am 13.5ft 11s 22 27 mph 984.8mb 49f 48f
12:00am 13.5ft 10s 25 29 mph 984.4mb 49f 48f
Thu 11/20 10:00pm 12ft 9s 22 31 mph 983.1mb 49f 48f
9:00pm 12.5ft 8s 20 29 mph 982.8mb 49f 48f
8:00pm 11.5ft 8s 31 38 mph 982.1mb 49f 48f
7:00pm 10ft 7s 34 43 mph 983.4mb 49f 48f
6:00pm 9.5ft 6s 31 38 mph 985.3mb 49f 47f
5:00pm 8.5ft 6s 34 40 mph 987mb 49f 48f
4:00pm 8ft 9s 27 36 mph 989.2mb 49f 48f
3:00pm 7.5ft 12s 25 29 mph 990.9mb 49f 47f
2:00pm 8ft 12s 27 31 mph 992.6mb 49f 47f
1:00pm 7ft 9s 25 29 mph 993.7mb 49f 46f
12:00pm 7ft 9s 25 29 mph 995mb 49f 46f
11:00am 6.5ft 11s 22 29 mph 996.5mb 49f 46f
10:00am 7ft 12s 22 27 mph 998.3mb 49f 46f
9:00am 7ft 10s 18 22 mph 999.1mb 49f 46f
8:00am 7ft 12s 16 20 mph 1000.1mb 49f 45f
7:00am 7ft 12s 11 16 mph 1001.5mb 49f 45f
6:00am 7ft 13s 9 11 mph 1003.2mb 49f 45f
5:00am 7.5ft 13s 7 9 mph 1004.1mb 49f 45f
4:00am 8ft 13s 7 9 mph 1004.9mb 49f 46f
3:00am 8ft 12s 4 9 mph 1005.8mb 49f 46f
2:00am 8ft 13s 2 7 mph 1007mb 49f 46f
1:00am 8ft 13s 4 7 mph 1007.4mb 49f 46f
12:00am 9ft 14s 7 9 mph 1007.6mb 49f 46f
Wed 11/19 11:00pm 9ft 13s 7 9 mph 1008.3mb 49f 46f
10:00pm 9ft 14s 9
mph
1008.7mb 49f 47f
9:00pm 9ft 11s 9 11 mph 1009.4mb 49f 47f
8:00pm 9ft 14s 9 11 mph 1009.9mb 49f 47f
7:00pm 8.5ft 14s 11 13 mph 1010.4mb 49f 47f
6:00pm 9ft 14s 11 16 mph 1010.6mb 49f 47f
5:00pm 10ft 13s 13 16 mph 1011.1mb 49f 47f
4:00pm 10ft 14s 11 16 mph 1011.3mb 49f 47f
3:00pm 10ft 14s 11 13 mph 1011.6mb 49f 47f
2:00pm 10.5ft 14s 11 13 mph 1011.5mb 49f 48f